sensor_id;sensor_type;location;lat;lon;timestamp;pressure;altitude;pressure_sealevel;temperature;humidity
82512;BME280;72152;65.012;25.464;2024-02-26T00:00:28;100676.79;;;3.40;74.99
82512;BME280;72152;65.012;25.464;2024-02-26T00:03:39;100681.81;;;3.39;74.75
82512;BME280;72152;65.012;25.464;2024-02-26T00:06:55;100680.79;;;3.40;74.95
82512;BME280;72152;65.012;25.464;2024-02-26T00:10:01;100683.77;;;3.41;75.11
82512;BME280;72152;65.012;25.464;2024-02-26T00:13:01;100684.59;;;3.39;75.17
82512;BME280;72152;65.012;25.464;2024-02-26T00:16:08;100683.22;;;3.39;74.84
82512;BME280;72152;65.012;25.464;2024-02-26T00:19:19;100683.00;;;3.38;75.03
82512;BME280;72152;65.012;25.464;2024-02-26T00:22:29;100685.09;;;3.38;75.10
82512;BME280;72152;65.012;25.464;2024-02-26T00:25:39;100685.59;;;3.37;75.03
82512;BME280;72152;65.012;25.464;2024-02-26T00:28:51;100681.40;;;3.36;75.18
82512;BME280;72152;65.012;25.464;2024-02-26T00:32:04;100688.36;;;3.37;75.20
82512;BME280;72152;65.012;25.464;2024-02-26T00:35:16;100691.81;;;3.36;75.08
82512;BME280;72152;65.012;25.464;2024-02-26T00:38:22;100691.80;;;3.35;75.05
82512;BME280;72152;65.012;25.464;2024-02-26T00:41:26;100693.48;;;3.34;75.26
82512;BME280;72152;65.012;25.464;2024-02-26T00:44:30;100697.67;;;3.34;75.30
82512;BME280;72152;65.012;25.464;2024-02-26T00:47:38;100698.55;;;3.34;75.45
82512;BME280;72152;65.012;25.464;2024-02-26T00:50:50;100702.50;;;3.32;75.40
82512;BME280;72152;65.012;25.464;2024-02-26T00:57:07;100707.14;;;3.30;75.60
82512;BME280;72152;65.012;25.464;2024-02-26T01:00:12;100710.30;;;3.31;75.69
82512;BME280;72152;65.012;25.464;2024-02-26T01:03:23;100716.25;;;3.33;75.58
82512;BME280;72152;65.012;25.464;2024-02-26T01:06:30;100717.45;;;3.32;75.66
82512;BME280;72152;65.012;25.464;2024-02-26T01:09:41;100716.48;;;3.28;75.81
82512;BME280;72152;65.012;25.464;2024-02-26T01:12:48;100715.95;;;3.28;75.85
82512;BME280;72152;65.012;25.464;2024-02-26T01:15:52;100709.58;;;3.30;75.83
82512;BME280;72152;65.012;25.464;2024-02-26T01:18:55;100717.07;;;3.30;75.94
82512;BME280;72152;65.012;25.464;2024-02-26T01:21:59;100718.46;;;3.31;75.87
82512;BME280;72152;65.012;25.464;2024-02-26T01:25:06;100723.48;;;3.30;76.04
82512;BME280;72152;65.012;25.464;2024-02-26T01:28:15;100724.67;;;3.29;75.99
82512;BME280;72152;65.012;25.464;2024-02-26T01:31:15;100724.19;;;3.31;75.92
82512;BME280;72152;65.012;25.464;2024-02-26T01:34:23;100724.36;;;3.30;76.09
82512;BME280;72152;65.012;25.464;2024-02-26T01:37:37;100723.80;;;3.29;76.05
82512;BME280;72152;65.012;25.464;2024-02-26T01:40:44;100726.98;;;3.31;76.07
82512;BME280;72152;65.012;25.464;2024-02-26T01:43:50;100729.09;;;3.32;76.02
82512;BME280;72152;65.012;25.464;2024-02-26T01:50:16;100731.74;;;3.33;76.03
82512;BME280;72152;65.012;25.464;2024-02-26T01:53:29;100740.84;;;3.35;75.98
82512;BME280;72152;65.012;25.464;2024-02-26T01:56:36;100741.60;;;3.38;76.08
82512;BME280;72152;65.012;25.464;2024-02-26T01:59:41;100742.09;;;3.43;75.98
82512;BME280;72152;65.012;25.464;2024-02-26T02:02:44;100744.52;;;3.50;76.04
82512;BME280;72152;65.012;25.464;2024-02-26T02:05:48;100741.30;;;3.54;75.80
82512;BME280;72152;65.012;25.464;2024-02-26T02:08:55;100744.54;;;3.57;75.80
82512;BME280;72152;65.012;25.464;2024-02-26T02:12:10;100740.46;;;3.61;75.77
82512;BME280;72152;65.012;25.464;2024-02-26T02:15:27;100735.14;;;3.65;75.44
82512;BME280;72152;65.012;25.464;2024-02-26T02:18:32;100732.29;;;3.68;75.47
82512;BME280;72152;65.012;25.464;2024-02-26T02:21:47;100736.30;;;3.69;75.32
82512;BME280;72152;65.012;25.464;2024-02-26T02:24:59;100736.84;;;3.69;75.29
82512;BME280;72152;65.012;25.464;2024-02-26T02:28:07;100737.20;;;3.70;75.35
82512;BME280;72152;65.012;25.464;2024-02-26T02:31:19;100740.51;;;3.70;75.20
82512;BME280;72152;65.012;25.464;2024-02-26T02:34:24;100739.44;;;3.69;75.00
82512;BME280;72152;65.012;25.464;2024-02-26T02:37:31;100737.34;;;3.69;75.01
82512;BME280;72152;65.012;25.464;2024-02-26T02:40:40;100734.27;;;3.64;74.92
82512;BME280;72152;65.012;25.464;2024-02-26T02:43:49;100740.54;;;3.65;75.08
82512;BME280;72152;65.012;25.464;2024-02-26T02:46:54;100744.36;;;3.64;74.98
82512;BME280;72152;65.012;25.464;2024-02-26T02:50:06;100744.86;;;3.64;74.82
82512;BME280;72152;65.012;25.464;2024-02-26T02:53:16;100745.94;;;3.65;75.09
82512;BME280;72152;65.012;25.464;2024-02-26T02:56:22;100746.59;;;3.70;74.90
82512;BME280;72152;65.012;25.464;2024-02-26T02:59:37;100745.23;;;3.71;74.73
82512;BME280;72152;65.012;25.464;2024-02-26T03:02:47;100745.13;;;3.74;74.61
82512;BME280;72152;65.012;25.464;2024-02-26T03:05:55;100750.36;;;3.74;74.67
82512;BME280;72152;65.012;25.464;2024-02-26T03:09:05;100754.84;;;3.73;74.58
82512;BME280;72152;65.012;25.464;2024-02-26T03:12:09;100753.66;;;3.74;74.41
82512;BME280;72152;65.012;25.464;2024-02-26T03:15:23;100761.11;;;3.73;74.42
82512;BME280;72152;65.012;25.464;2024-02-26T03:18:19;100759.82;;;3.70;74.25
82512;BME280;72152;65.012;25.464;2024-02-26T03:21:26;100766.09;;;3.70;74.19
82512;BME280;72152;65.012;25.464;2024-02-26T03:24:34;100767.65;;;3.70;74.20
82512;BME280;72152;65.012;25.464;2024-02-26T03:27:41;100767.98;;;3.69;74.18
82512;BME280;72152;65.012;25.464;2024-02-26T03:30:39;100773.14;;;3.67;74.08
82512;BME280;72152;65.012;25.464;2024-02-26T03:33:46;100772.73;;;3.64;74.12
82512;BME280;72152;65.012;25.464;2024-02-26T03:36:53;100777.67;;;3.60;74.25
82512;BME280;72152;65.012;25.464;2024-02-26T03:39:59;100776.81;;;3.54;74.22
82512;BME280;72152;65.012;25.464;2024-02-26T03:43:11;100778.63;;;3.50;74.39
82512;BME280;72152;65.012;25.464;2024-02-26T03:46:18;100779.57;;;3.46;74.56
82512;BME280;72152;65.012;25.464;2024-02-26T03:49:25;100785.54;;;3.42;74.64
82512;BME280;72152;65.012;25.464;2024-02-26T03:52:32;100787.23;;;3.40;74.62
82512;BME280;72152;65.012;25.464;2024-02-26T03:55:37;100786.11;;;3.38;74.84
82512;BME280;72152;65.012;25.464;2024-02-26T03:58:43;100793.40;;;3.37;74.85
82512;BME280;72152;65.012;25.464;2024-02-26T04:01:44;100794.52;;;3.39;74.93
82512;BME280;72152;65.012;25.464;2024-02-26T04:04:48;100790.52;;;3.39;74.97
82512;BME280;72152;65.012;25.464;2024-02-26T04:07:55;100792.04;;;3.38;74.94
82512;BME280;72152;65.012;25.464;2024-02-26T04:11:05;100800.89;;;3.38;75.01
82512;BME280;72152;65.012;25.464;2024-02-26T04:14:23;100806.70;;;3.39;75.11
82512;BME280;72152;65.012;25.464;2024-02-26T04:17:39;100800.94;;;3.39;74.87
82512;BME280;72152;65.012;25.464;2024-02-26T04:20:54;100804.37;;;3.37;75.19
82512;BME280;72152;65.012;25.464;2024-02-26T04:23:57;100808.02;;;3.37;75.15
82512;BME280;72152;65.012;25.464;2024-02-26T04:27:05;100811.01;;;3.38;75.30
82512;BME280;72152;65.012;25.464;2024-02-26T04:30:20;100807.20;;;3.39;75.26
82512;BME280;72152;65.012;25.464;2024-02-26T04:33:28;100806.67;;;3.39;75.20
82512;BME280;72152;65.012;25.464;2024-02-26T04:36:36;100803.88;;;3.38;75.37
82512;BME280;72152;65.012;25.464;2024-02-26T04:39:44;100799.91;;;3.39;75.47
82512;BME280;72152;65.012;25.464;2024-02-26T04:42:49;100805.14;;;3.40;75.32
82512;BME280;72152;65.012;25.464;2024-02-26T04:45:53;100807.05;;;3.40;75.58
82512;BME280;72152;65.012;25.464;2024-02-26T04:49:00;100812.74;;;3.38;75.38
82512;BME280;72152;65.012;25.464;2024-02-26T04:52:03;100813.22;;;3.36;75.29
82512;BME280;72152;65.012;25.464;2024-02-26T04:55:08;100811.27;;;3.36;75.53
82512;BME280;72152;65.012;25.464;2024-02-26T04:58:10;100813.94;;;3.31;75.58
82512;BME280;72152;65.012;25.464;2024-02-26T05:01:27;100811.05;;;3.27;75.63
82512;BME280;72152;65.012;25.464;2024-02-26T05:04:29;100813.93;;;3.25;75.60
82512;BME280;72152;65.012;25.464;2024-02-26T05:07:39;100816.52;;;3.24;75.67
82512;BME280;72152;65.012;25.464;2024-02-26T05:10:58;100817.37;;;3.23;75.75
82512;BME280;72152;65.012;25.464;2024-02-26T05:14:00;100819.48;;;3.24;75.69
82512;BME280;72152;65.012;25.464;2024-02-26T05:17:08;100831.14;;;3.25;75.82
82512;BME280;72152;65.012;25.464;2024-02-26T05:20:23;100832.22;;;3.26;75.96
82512;BME280;72152;65.012;25.464;2024-02-26T05:23:29;100834.02;;;3.28;75.75
82512;BME280;72152;65.012;25.464;2024-02-26T05:26:34;100833.71;;;3.29;75.85
82512;BME280;72152;65.012;25.464;2024-02-26T05:29:31;100832.70;;;3.30;75.77
82512;BME280;72152;65.012;25.464;2024-02-26T05:32:44;100830.14;;;3.32;75.88
82512;BME280;72152;65.012;25.464;2024-02-26T05:35:52;100833.92;;;3.37;75.72
82512;BME280;72152;65.012;25.464;2024-02-26T05:39:04;100837.59;;;3.37;75.71
82512;BME280;72152;65.012;25.464;2024-02-26T05:42:12;100840.53;;;3.37;75.75
82512;BME280;72152;65.012;25.464;2024-02-26T05:45:27;100847.48;;;3.36;75.68
82512;BME280;72152;65.012;25.464;2024-02-26T05:48:39;100846.61;;;3.36;75.75
82512;BME280;72152;65.012;25.464;2024-02-26T05:51:46;100841.96;;;3.38;75.80
82512;BME280;72152;65.012;25.464;2024-02-26T05:54:54;100837.79;;;3.38;75.68
82512;BME280;72152;65.012;25.464;2024-02-26T05:58:01;100833.05;;;3.36;75.74
82512;BME280;72152;65.012;25.464;2024-02-26T06:01:03;100830.47;;;3.31;75.69
82512;BME280;72152;65.012;25.464;2024-02-26T06:04:10;100828.42;;;3.26;75.91
82512;BME280;72152;65.012;25.464;2024-02-26T06:07:24;100826.98;;;3.25;75.78
82512;BME280;72152;65.012;25.464;2024-02-26T06:10:40;100823.64;;;3.24;76.04
82512;BME280;72152;65.012;25.464;2024-02-26T06:13:50;100821.16;;;3.22;75.98
82512;BME280;72152;65.012;25.464;2024-02-26T06:16:59;100823.80;;;3.23;75.96
82512;BME280;72152;65.012;25.464;2024-02-26T06:19:54;100822.12;;;3.19;76.07
82512;BME280;72152;65.012;25.464;2024-02-26T06:23:03;100820.12;;;3.16;76.04
82512;BME280;72152;65.012;25.464;2024-02-26T06:26:14;100817.10;;;3.13;76.06
82512;BME280;72152;65.012;25.464;2024-02-26T06:29:22;100820.27;;;3.15;76.10
82512;BME280;72152;65.012;25.464;2024-02-26T06:32:29;100821.24;;;3.18;76.16
82512;BME280;72152;65.012;25.464;2024-02-26T06:35:34;100821.67;;;3.22;76.10
82512;BME280;72152;65.012;25.464;2024-02-26T06:38:46;100825.94;;;3.25;76.28
82512;BME280;72152;65.012;25.464;2024-02-26T06:42:00;100832.29;;;3.28;75.98
82512;BME280;72152;65.012;25.464;2024-02-26T06:45:01;100833.12;;;3.27;75.98
82512;BME280;72152;65.012;25.464;2024-02-26T06:48:10;100831.59;;;3.28;76.16
82512;BME280;72152;65.012;25.464;2024-02-26T06:51:25;100834.38;;;3.34;76.05
82512;BME280;72152;65.012;25.464;2024-02-26T06:54:27;100837.44;;;3.38;75.95
82512;BME280;72152;65.012;25.464;2024-02-26T06:57:34;100839.23;;;3.40;75.76
82512;BME280;72152;65.012;25.464;2024-02-26T07:00:37;100840.66;;;3.41;75.60
82512;BME280;72152;65.012;25.464;2024-02-26T07:03:37;100839.79;;;3.41;75.72
82512;BME280;72152;65.012;25.464;2024-02-26T07:06:40;100839.84;;;3.43;75.43
82512;BME280;72152;65.012;25.464;2024-02-26T07:09:55;100841.37;;;3.42;75.50
82512;BME280;72152;65.012;25.464;2024-02-26T07:13:04;100841.84;;;3.46;75.55
82512;BME280;72152;65.012;25.464;2024-02-26T07:16:14;100847.70;;;3.51;75.37
82512;BME280;72152;65.012;25.464;2024-02-26T07:19:18;100842.40;;;3.54;75.32
82512;BME280;72152;65.012;25.464;2024-02-26T07:22:25;100842.08;;;3.55;75.32
82512;BME280;72152;65.012;25.464;2024-02-26T07:25:36;100844.36;;;3.56;75.08
82512;BME280;72152;65.012;25.464;2024-02-26T07:28:42;100843.98;;;3.55;74.92
82512;BME280;72152;65.012;25.464;2024-02-26T07:31:50;100844.83;;;3.54;75.11
82512;BME280;72152;65.012;25.464;2024-02-26T07:35:02;100846.77;;;3.56;74.89
82512;BME280;72152;65.012;25.464;2024-02-26T07:38:12;100847.71;;;3.58;75.04
82512;BME280;72152;65.012;25.464;2024-02-26T07:41:22;100847.69;;;3.63;75.11
82512;BME280;72152;65.012;25.464;2024-02-26T07:44:30;100844.88;;;3.69;74.81
82512;BME280;72152;65.012;25.464;2024-02-26T07:47:42;100847.70;;;3.70;74.69
82512;BME280;72152;65.012;25.464;2024-02-26T07:50:52;100849.29;;;3.71;74.50
82512;BME280;72152;65.012;25.464;2024-02-26T07:54:12;100850.07;;;3.74;74.39
82512;BME280;72152;65.012;25.464;2024-02-26T07:57:22;100850.75;;;3.80;74.27
82512;BME280;72152;65.012;25.464;2024-02-26T08:00:35;100851.49;;;3.82;74.31
82512;BME280;72152;65.012;25.464;2024-02-26T08:03:38;100846.16;;;3.85;74.19
82512;BME280;72152;65.012;25.464;2024-02-26T08:06:47;100851.13;;;3.88;74.08
82512;BME280;72152;65.012;25.464;2024-02-26T08:09:55;100847.98;;;3.88;73.97
82512;BME280;72152;65.012;25.464;2024-02-26T08:13:08;100849.24;;;3.89;73.91
82512;BME280;72152;65.012;25.464;2024-02-26T08:19:31;100846.77;;;3.94;73.56
82512;BME280;72152;65.012;25.464;2024-02-26T08:22:31;100847.16;;;3.97;73.46
82512;BME280;72152;65.012;25.464;2024-02-26T08:25:29;100847.21;;;3.99;73.40
82512;BME280;72152;65.012;25.464;2024-02-26T08:28:39;100846.81;;;4.03;73.15
82512;BME280;72152;65.012;25.464;2024-02-26T08:31:43;100852.38;;;4.09;72.99
82512;BME280;72152;65.012;25.464;2024-02-26T08:34:48;100857.23;;;4.17;72.65
82512;BME280;72152;65.012;25.464;2024-02-26T08:37:57;100860.21;;;4.24;72.34
82512;BME280;72152;65.012;25.464;2024-02-26T08:41:03;100860.70;;;4.30;72.42
82512;BME280;72152;65.012;25.464;2024-02-26T08:44:05;100860.26;;;4.33;72.20
82512;BME280;72152;65.012;25.464;2024-02-26T08:47:12;100863.05;;;4.33;71.80
82512;BME280;72152;65.012;25.464;2024-02-26T08:50:27;100866.06;;;4.35;71.83
82512;BME280;72152;65.012;25.464;2024-02-26T08:53:29;100866.28;;;4.37;71.79
82512;BME280;72152;65.012;25.464;2024-02-26T08:56:39;100865.51;;;4.41;71.41
82512;BME280;72152;65.012;25.464;2024-02-26T08:59:41;100870.48;;;4.44;71.22
82512;BME280;72152;65.012;25.464;2024-02-26T09:02:49;100873.36;;;4.49;70.75
82512;BME280;72152;65.012;25.464;2024-02-26T09:05:56;100871.86;;;4.52;70.98
82512;BME280;72152;65.012;25.464;2024-02-26T09:09:07;100872.45;;;4.55;70.78
82512;BME280;72152;65.012;25.464;2024-02-26T09:12:14;100873.79;;;4.60;70.88
82512;BME280;72152;65.012;25.464;2024-02-26T09:15:21;100877.16;;;4.63;70.49
82512;BME280;72152;65.012;25.464;2024-02-26T09:18:24;100876.03;;;4.67;70.47
82512;BME280;72152;65.012;25.464;2024-02-26T09:21:33;100880.15;;;4.72;70.20
82512;BME280;72152;65.012;25.464;2024-02-26T09:24:45;100875.88;;;4.75;70.03
82512;BME280;72152;65.012;25.464;2024-02-26T09:27:53;100876.42;;;4.77;69.96
82512;BME280;72152;65.012;25.464;2024-02-26T09:31:03;100878.21;;;4.79;69.66
82512;BME280;72152;65.012;25.464;2024-02-26T09:34:09;100876.80;;;4.78;69.67
82512;BME280;72152;65.012;25.464;2024-02-26T09:37:13;100883.65;;;4.80;69.54
82512;BME280;72152;65.012;25.464;2024-02-26T09:40:28;100879.73;;;4.84;69.20
82512;BME280;72152;65.012;25.464;2024-02-26T09:43:41;100885.58;;;4.88;69.16
82512;BME280;72152;65.012;25.464;2024-02-26T09:46:48;100883.80;;;4.95;68.92
82512;BME280;72152;65.012;25.464;2024-02-26T09:50:02;100881.33;;;5.01;69.03
82512;BME280;72152;65.012;25.464;2024-02-26T09:53:08;100877.65;;;5.09;68.90
82512;BME280;72152;65.012;25.464;2024-02-26T09:56:12;100878.94;;;5.12;68.63
82512;BME280;72152;65.012;25.464;2024-02-26T09:59:20;100881.13;;;5.16;68.33
82512;BME280;72152;65.012;25.464;2024-02-26T10:02:26;100885.38;;;5.19;68.48
82512;BME280;72152;65.012;25.464;2024-02-26T10:05:28;100886.70;;;5.24;68.31
82512;BME280;72152;65.012;25.464;2024-02-26T10:08:36;100884.92;;;5.30;67.99
82512;BME280;72152;65.012;25.464;2024-02-26T10:11:43;100884.48;;;5.35;68.00
82512;BME280;72152;65.012;25.464;2024-02-26T10:14:47;100885.06;;;5.38;67.74
82512;BME280;72152;65.012;25.464;2024-02-26T10:17:57;100892.95;;;5.40;67.60
82512;BME280;72152;65.012;25.464;2024-02-26T10:21:13;100895.72;;;5.38;67.47
82512;BME280;72152;65.012;25.464;2024-02-26T10:24:24;100895.38;;;5.39;67.31
82512;BME280;72152;65.012;25.464;2024-02-26T10:27:36;100893.98;;;5.38;67.37
82512;BME280;72152;65.012;25.464;2024-02-26T10:30:44;100887.95;;;5.43;67.30
82512;BME280;72152;65.012;25.464;2024-02-26T10:33:54;100888.20;;;5.46;66.92
82512;BME280;72152;65.012;25.464;2024-02-26T10:37:03;100885.88;;;5.44;66.91
82512;BME280;72152;65.012;25.464;2024-02-26T10:40:18;100889.95;;;5.46;66.90
82512;BME280;72152;65.012;25.464;2024-02-26T10:43:24;100888.09;;;5.50;67.07
82512;BME280;72152;65.012;25.464;2024-02-26T10:46:32;100883.48;;;5.55;66.52
82512;BME280;72152;65.012;25.464;2024-02-26T10:49:44;100885.17;;;5.61;66.66
82512;BME280;72152;65.012;25.464;2024-02-26T10:52:50;100882.55;;;5.61;66.53
82512;BME280;72152;65.012;25.464;2024-02-26T10:56:02;100880.60;;;5.59;66.18
82512;BME280;72152;65.012;25.464;2024-02-26T10:59:09;100888.97;;;5.58;66.15
82512;BME280;72152;65.012;25.464;2024-02-26T11:02:22;100887.89;;;5.57;65.90
82512;BME280;72152;65.012;25.464;2024-02-26T11:05:32;100892.52;;;5.52;65.93
82512;BME280;72152;65.012;25.464;2024-02-26T11:08:37;100890.35;;;5.49;65.80
82512;BME280;72152;65.012;25.464;2024-02-26T11:11:43;100891.56;;;5.48;66.03
82512;BME280;72152;65.012;25.464;2024-02-26T11:14:49;100889.33;;;5.51;65.83
82512;BME280;72152;65.012;25.464;2024-02-26T11:17:59;100895.98;;;5.51;65.96
82512;BME280;72152;65.012;25.464;2024-02-26T11:21:11;100898.82;;;5.54;65.57
82512;BME280;72152;65.012;25.464;2024-02-26T11:24:24;100902.30;;;5.54;65.83
82512;BME280;72152;65.012;25.464;2024-02-26T11:27:32;100907.64;;;5.49;65.75
82512;BME280;72152;65.012;25.464;2024-02-26T11:30:44;100909.54;;;5.48;65.69
82512;BME280;72152;65.012;25.464;2024-02-26T11:33:49;100914.39;;;5.46;65.78
82512;BME280;72152;65.012;25.464;2024-02-26T11:36:55;100915.23;;;5.45;65.40
82512;BME280;72152;65.012;25.464;2024-02-26T11:40:08;100916.77;;;5.35;65.16
82512;BME280;72152;65.012;25.464;2024-02-26T11:43:19;100914.89;;;5.29;65.21
82512;BME280;72152;65.012;25.464;2024-02-26T11:46:38;100918.55;;;5.28;65.76
82512;BME280;72152;65.012;25.464;2024-02-26T11:49:45;100912.41;;;5.35;65.46
82512;BME280;72152;65.012;25.464;2024-02-26T11:56:47;100914.07;;;5.40;65.54
82512;BME280;72152;65.012;25.464;2024-02-26T11:59:44;100924.70;;;5.47;65.66
82512;BME280;72152;65.012;25.464;2024-02-26T12:02:58;100926.02;;;5.53;65.38
82512;BME280;72152;65.012;25.464;2024-02-26T12:06:09;100922.05;;;5.54;65.41
82512;BME280;72152;65.012;25.464;2024-02-26T12:09:17;100922.45;;;5.57;65.03
82512;BME280;72152;65.012;25.464;2024-02-26T12:12:36;100915.89;;;5.60;64.64
82512;BME280;72152;65.012;25.464;2024-02-26T12:15:39;100918.52;;;5.53;64.30
82512;BME280;72152;65.012;25.464;2024-02-26T12:18:51;100921.98;;;5.52;64.49
82512;BME280;72152;65.012;25.464;2024-02-26T12:22:04;100924.62;;;5.53;64.40
82512;BME280;72152;65.012;25.464;2024-02-26T12:25:15;100927.55;;;5.50;64.31
82512;BME280;72152;65.012;25.464;2024-02-26T12:28:23;100932.97;;;5.50;64.30
82512;BME280;72152;65.012;25.464;2024-02-26T12:31:29;100932.58;;;5.49;64.31
82512;BME280;72152;65.012;25.464;2024-02-26T12:34:37;100932.55;;;5.47;64.39
82512;BME280;72152;65.012;25.464;2024-02-26T12:40:51;100928.27;;;5.43;64.35
82512;BME280;72152;65.012;25.464;2024-02-26T12:44:03;100926.11;;;5.39;64.17
82512;BME280;72152;65.012;25.464;2024-02-26T12:47:14;100925.05;;;5.39;64.58
82512;BME280;72152;65.012;25.464;2024-02-26T12:50:29;100925.45;;;5.42;64.43
82512;BME280;72152;65.012;25.464;2024-02-26T12:53:36;100925.77;;;5.41;64.42
82512;BME280;72152;65.012;25.464;2024-02-26T12:56:46;100923.41;;;5.44;64.69
82512;BME280;72152;65.012;25.464;2024-02-26T12:59:48;100929.80;;;5.49;64.79
82512;BME280;72152;65.012;25.464;2024-02-26T13:02:56;100931.63;;;5.54;64.28
82512;BME280;72152;65.012;25.464;2024-02-26T13:06:07;100935.91;;;5.58;64.66
82512;BME280;72152;65.012;25.464;2024-02-26T13:09:15;100933.85;;;5.60;64.27
82512;BME280;72152;65.012;25.464;2024-02-26T13:12:25;100930.67;;;5.58;64.22
82512;BME280;72152;65.012;25.464;2024-02-26T13:15:33;100931.91;;;5.58;64.19
82512;BME280;72152;65.012;25.464;2024-02-26T13:18:43;100935.23;;;5.59;64.33
82512;BME280;72152;65.012;25.464;2024-02-26T13:25:07;100937.11;;;5.56;64.05
82512;BME280;72152;65.012;25.464;2024-02-26T13:28:27;100936.52;;;5.54;64.34
82512;BME280;72152;65.012;25.464;2024-02-26T13:31:21;100938.91;;;5.51;64.29
82512;BME280;72152;65.012;25.464;2024-02-26T13:34:33;100939.40;;;5.49;64.59
82512;BME280;72152;65.012;25.464;2024-02-26T13:37:33;100940.23;;;5.48;64.45
82512;BME280;72152;65.012;25.464;2024-02-26T13:40:40;100943.39;;;5.48;64.41
82512;BME280;72152;65.012;25.464;2024-02-26T13:43:37;100944.35;;;5.44;64.57
82512;BME280;72152;65.012;25.464;2024-02-26T13:46:46;100939.41;;;5.41;64.74
82512;BME280;72152;65.012;25.464;2024-02-26T13:49:56;100943.77;;;5.34;64.72
82512;BME280;72152;65.012;25.464;2024-02-26T13:53:02;100942.55;;;5.25;64.69
82512;BME280;72152;65.012;25.464;2024-02-26T13:56:03;100939.29;;;5.20;64.72
82512;BME280;72152;65.012;25.464;2024-02-26T13:59:10;100947.02;;;5.15;64.82
82512;BME280;72152;65.012;25.464;2024-02-26T14:02:19;100951.13;;;5.11;65.15
82512;BME280;72152;65.012;25.464;2024-02-26T14:05:20;100948.48;;;5.02;65.13
82512;BME280;72152;65.012;25.464;2024-02-26T14:08:27;100948.45;;;4.93;64.96
82512;BME280;72152;65.012;25.464;2024-02-26T14:11:32;100954.53;;;4.85;65.15
82512;BME280;72152;65.012;25.464;2024-02-26T14:14:36;100957.84;;;4.77;65.32
82512;BME280;72152;65.012;25.464;2024-02-26T14:17:43;100957.33;;;4.71;65.60
82512;BME280;72152;65.012;25.464;2024-02-26T14:20:53;100952.01;;;4.66;65.52
82512;BME280;72152;65.012;25.464;2024-02-26T14:24:01;100956.41;;;4.60;65.81
82512;BME280;72152;65.012;25.464;2024-02-26T14:27:13;100961.31;;;4.55;65.87
82512;BME280;72152;65.012;25.464;2024-02-26T14:30:22;100958.86;;;4.47;65.83
82512;BME280;72152;65.012;25.464;2024-02-26T14:33:29;100961.13;;;4.34;66.01
82512;BME280;72152;65.012;25.464;2024-02-26T14:36:36;100959.23;;;4.27;66.45
82512;BME280;72152;65.012;25.464;2024-02-26T14:39:44;100960.63;;;4.21;66.35
82512;BME280;72152;65.012;25.464;2024-02-26T14:42:47;100957.59;;;4.18;66.50
82512;BME280;72152;65.012;25.464;2024-02-26T14:45:50;100960.87;;;4.17;66.36
82512;BME280;72152;65.012;25.464;2024-02-26T14:48:58;100963.41;;;4.14;66.47
82512;BME280;72152;65.012;25.464;2024-02-26T14:52:07;100967.33;;;4.11;66.67
82512;BME280;72152;65.012;25.464;2024-02-26T14:55:14;100965.65;;;4.07;66.57
82512;BME280;72152;65.012;25.464;2024-02-26T14:58:20;100968.98;;;4.08;66.93
82512;BME280;72152;65.012;25.464;2024-02-26T15:01:22;100974.20;;;4.08;66.62
82512;BME280;72152;65.012;25.464;2024-02-26T15:04:24;100973.24;;;4.11;66.91
82512;BME280;72152;65.012;25.464;2024-02-26T15:07:32;100968.63;;;4.14;67.19
82512;BME280;72152;65.012;25.464;2024-02-26T15:10:38;100972.17;;;4.17;66.98
82512;BME280;72152;65.012;25.464;2024-02-26T15:13:47;100967.73;;;4.13;66.94
82512;BME280;72152;65.012;25.464;2024-02-26T15:16:54;100965.38;;;4.10;66.90
82512;BME280;72152;65.012;25.464;2024-02-26T15:19:56;100963.92;;;4.08;67.10
82512;BME280;72152;65.012;25.464;2024-02-26T15:23:02;100966.06;;;4.03;67.13
82512;BME280;72152;65.012;25.464;2024-02-26T15:26:09;100966.69;;;4.00;67.36
82512;BME280;72152;65.012;25.464;2024-02-26T15:29:23;100958.39;;;3.96;67.45
82512;BME280;72152;65.012;25.464;2024-02-26T15:32:37;100956.05;;;3.93;67.20
82512;BME280;72152;65.012;25.464;2024-02-26T15:35:39;100958.78;;;3.92;67.35
82512;BME280;72152;65.012;25.464;2024-02-26T15:38:45;100963.36;;;3.87;67.48
82512;BME280;72152;65.012;25.464;2024-02-26T15:41:58;100962.16;;;3.81;67.90
82512;BME280;72152;65.012;25.464;2024-02-26T15:44:59;100962.86;;;3.75;67.75
82512;BME280;72152;65.012;25.464;2024-02-26T15:48:06;100965.55;;;3.72;67.89
82512;BME280;72152;65.012;25.464;2024-02-26T15:51:11;100972.23;;;3.68;67.84
82512;BME280;72152;65.012;25.464;2024-02-26T15:54:25;100972.89;;;3.67;67.86
82512;BME280;72152;65.012;25.464;2024-02-26T15:57:32;100974.11;;;3.67;68.03
82512;BME280;72152;65.012;25.464;2024-02-26T16:00:39;100977.10;;;3.68;68.09
82512;BME280;72152;65.012;25.464;2024-02-26T16:03:42;100980.36;;;3.67;68.10
82512;BME280;72152;65.012;25.464;2024-02-26T16:06:47;100984.34;;;3.66;68.10
82512;BME280;72152;65.012;25.464;2024-02-26T16:09:56;100987.10;;;3.65;68.31
82512;BME280;72152;65.012;25.464;2024-02-26T16:13:04;100993.49;;;3.63;68.10
82512;BME280;72152;65.012;25.464;2024-02-26T16:16:13;100990.96;;;3.60;68.24
82512;BME280;72152;65.012;25.464;2024-02-26T16:19:26;100997.97;;;3.62;68.37
82512;BME280;72152;65.012;25.464;2024-02-26T16:22:32;100996.34;;;3.66;68.48
82512;BME280;72152;65.012;25.464;2024-02-26T16:25:37;100995.71;;;3.68;68.45
82512;BME280;72152;65.012;25.464;2024-02-26T16:28:40;100993.33;;;3.64;68.08
82512;BME280;72152;65.012;25.464;2024-02-26T16:31:49;100986.81;;;3.61;68.22
82512;BME280;72152;65.012;25.464;2024-02-26T16:35:01;100984.92;;;3.62;68.60
82512;BME280;72152;65.012;25.464;2024-02-26T16:37:57;100988.40;;;3.61;68.40
82512;BME280;72152;65.012;25.464;2024-02-26T16:41:03;100993.23;;;3.61;68.18